sensor_id;sensor_type;location;lat;lon;timestamp;temperature;humidity
76750;DHT22;66447;35.844;14.468;2023-07-20T00:10:39;35.33;-6.00
76750;DHT22;66447;35.844;14.468;2023-07-20T00:25:40;35.29;-6.00
76750;DHT22;66447;35.844;14.468;2023-07-20T00:40:41;35.28;-6.00
76750;DHT22;66447;35.844;14.468;2023-07-20T00:55:42;37.00;-6.00
76750;DHT22;66447;35.844;14.468;2023-07-20T01:10:50;35.82;-6.00
76750;DHT22;66447;35.844;14.468;2023-07-20T01:26:27;35.07;-6.00
76750;DHT22;66447;35.844;14.468;2023-07-20T01:41:33;35.59;-6.00
76750;DHT22;66447;35.844;14.468;2023-07-20T01:56:33;34.92;-6.00
76750;DHT22;66447;35.844;14.468;2023-07-20T02:11:34;34.71;-6.00
76750;DHT22;66447;35.844;14.468;2023-07-20T02:26:35;34.60;-6.00
76750;DHT22;66447;35.844;14.468;2023-07-20T02:41:36;35.49;-6.00
76750;DHT22;66447;35.844;14.468;2023-07-20T02:56:38;35.39;-6.00
76750;DHT22;66447;35.844;14.468;2023-07-20T03:11:40;35.69;-6.00
76750;DHT22;66447;35.844;14.468;2023-07-20T03:26:41;35.65;-6.00
76750;DHT22;66447;35.844;14.468;2023-07-20T03:41:42;35.57;-6.00
76750;DHT22;66447;35.844;14.468;2023-07-20T03:56:43;35.64;-6.00
76750;DHT22;66447;35.844;14.468;2023-07-20T04:11:44;35.83;-6.00
76750;DHT22;66447;35.844;14.468;2023-07-20T04:26:45;35.63;-6.00
76750;DHT22;66447;35.844;14.468;2023-07-20T04:41:46;37.46;-6.00
76750;DHT22;66447;35.844;14.468;2023-07-20T04:56:47;37.72;-6.00
76750;DHT22;66447;35.844;14.468;2023-07-20T05:11:48;37.99;-6.00
76750;DHT22;66447;35.844;14.468;2023-07-20T05:26:49;38.61;-6.00
76750;DHT22;66447;35.844;14.468;2023-07-20T05:41:50;39.07;-6.00
76750;DHT22;66447;35.844;14.468;2023-07-20T05:56:51;40.09;-6.00
76750;DHT22;66447;35.844;14.468;2023-07-20T06:11:52;41.12;-6.00
76750;DHT22;66447;35.844;14.468;2023-07-20T06:26:53;41.93;-6.00
76750;DHT22;66447;35.844;14.468;2023-07-20T06:41:54;44.88;-6.00
76750;DHT22;66447;35.844;14.468;2023-07-20T06:56:54;46.50;-6.00
76750;DHT22;66447;35.844;14.468;2023-07-20T07:11:56;46.54;-6.00
76750;DHT22;66447;35.844;14.468;2023-07-20T07:26:56;47.88;-6.00
76750;DHT22;66447;35.844;14.468;2023-07-20T07:41:57;46.74;-6.00
76750;DHT22;66447;35.844;14.468;2023-07-20T07:56:58;48.91;-6.00
76750;DHT22;66447;35.844;14.468;2023-07-20T08:11:59;47.40;-6.00
76750;DHT22;66447;35.844;14.468;2023-07-20T08:27:00;48.76;-6.00
76750;DHT22;66447;35.844;14.468;2023-07-20T08:42:01;51.02;-6.00
76750;DHT22;66447;35.844;14.468;2023-07-20T08:57:06;50.78;-6.00
76750;DHT22;66447;35.844;14.468;2023-07-20T09:12:15;49.44;-6.00
76750;DHT22;66447;35.844;14.468;2023-07-20T09:27:19;54.18;-6.00
76750;DHT22;66447;35.844;14.468;2023-07-20T09:42:22;50.97;-6.00
76750;DHT22;66447;35.844;14.468;2023-07-20T09:57:23;52.90;-6.00
76750;DHT22;66447;35.844;14.468;2023-07-20T10:12:25;50.48;-6.00
76750;DHT22;66447;35.844;14.468;2023-07-20T10:27:28;49.68;-6.00
76750;DHT22;66447;35.844;14.468;2023-07-20T10:42:33;49.77;-6.00
76750;DHT22;66447;35.844;14.468;2023-07-20T10:57:33;52.07;-6.00
76750;DHT22;66447;35.844;14.468;2023-07-20T11:12:34;48.75;-6.00
76750;DHT22;66447;35.844;14.468;2023-07-20T11:27:43;47.94;-6.00
76750;DHT22;66447;35.844;14.468;2023-07-20T11:42:44;49.40;-6.00
76750;DHT22;66447;35.844;14.468;2023-07-20T11:58:05;47.22;-6.00
76750;DHT22;66447;35.844;14.468;2023-07-20T12:13:06;46.89;-6.00
76750;DHT22;66447;35.844;14.468;2023-07-20T12:28:12;47.64;-6.00
76750;DHT22;66447;35.844;14.468;2023-07-20T12:43:14;49.04;-6.00
76750;DHT22;66447;35.844;14.468;2023-07-20T12:58:15;47.40;-6.00
76750;DHT22;66447;35.844;14.468;2023-07-20T13:13:16;48.11;-6.00
76750;DHT22;66447;35.844;14.468;2023-07-20T13:28:17;48.55;-6.00
76750;DHT22;66447;35.844;14.468;2023-07-20T13:43:18;48.08;-6.00
76750;DHT22;66447;35.844;14.468;2023-07-20T13:58:19;46.55;-6.00
76750;DHT22;66447;35.844;14.468;2023-07-20T14:13:20;48.24;-6.00
76750;DHT22;66447;35.844;14.468;2023-07-20T14:28:21;46.48;-6.00
76750;DHT22;66447;35.844;14.468;2023-07-20T14:43:22;48.21;-6.00
76750;DHT22;66447;35.844;14.468;2023-07-20T14:58:23;47.03;-6.00
76750;DHT22;66447;35.844;14.468;2023-07-20T15:13:24;47.40;-6.00
76750;DHT22;66447;35.844;14.468;2023-07-20T15:28:25;46.60;-6.00
76750;DHT22;66447;35.844;14.468;2023-07-20T15:43:26;46.32;-6.00
76750;DHT22;66447;35.844;14.468;2023-07-20T15:58:27;46.98;-6.00
76750;DHT22;66447;35.844;14.468;2023-07-20T16:13:28;45.62;-6.00
76750;DHT22;66447;35.844;14.468;2023-07-20T16:28:29;45.72;-6.00
76750;DHT22;66447;35.844;14.468;2023-07-20T16:43:30;44.89;-6.00
76750;DHT22;66447;35.844;14.468;2023-07-20T16:58:31;44.54;-6.00
76750;DHT22;66447;35.844;14.468;2023-07-20T17:13:33;43.72;-6.00
76750;DHT22;66447;35.844;14.468;2023-07-20T17:28:34;43.28;-6.00
76750;DHT22;66447;35.844;14.468;2023-07-20T17:43:35;42.96;-6.00
76750;DHT22;66447;35.844;14.468;2023-07-20T17:58:36;41.58;-6.00
76750;DHT22;66447;35.844;14.468;2023-07-20T18:13:37;40.19;-6.00
76750;DHT22;66447;35.844;14.468;2023-07-20T18:28:37;39.51;-6.00
76750;DHT22;66447;35.844;14.468;2023-07-20T18:43:39;39.12;-6.00
76750;DHT22;66447;35.844;14.468;2023-07-20T18:58:39;39.29;-6.00
76750;DHT22;66447;35.844;14.468;2023-07-20T19:13:40;37.27;-6.00
76750;DHT22;66447;35.844;14.468;2023-07-20T19:28:41;38.02;-6.00
76750;DHT22;66447;35.844;14.468;2023-07-20T19:43:42;38.74;-6.00
76750;DHT22;66447;35.844;14.468;2023-07-20T19:58:44;38.61;-6.00
76750;DHT22;66447;35.844;14.468;2023-07-20T20:13:45;39.10;-6.00
76750;DHT22;66447;35.844;14.468;2023-07-20T20:28:46;38.59;-6.00
76750;DHT22;66447;35.844;14.468;2023-07-20T20:43:46;39.15;-6.00
76750;DHT22;66447;35.844;14.468;2023-07-20T20:58:49;39.21;-6.00
76750;DHT22;66447;35.844;14.468;2023-07-20T21:13:49;37.87;-6.00
76750;DHT22;66447;35.844;14.468;2023-07-20T21:28:50;37.45;-6.00
76750;DHT22;66447;35.844;14.468;2023-07-20T21:43:51;36.53;-6.00
76750;DHT22;66447;35.844;14.468;2023-07-20T21:58:52;35.27;28.49
76750;DHT22;66447;35.844;14.468;2023-07-20T22:13:53;35.24;74.74
76750;DHT22;66447;35.844;14.468;2023-07-20T22:28:54;36.59;18.16
76750;DHT22;66447;35.844;14.468;2023-07-20T22:43:55;35.71;7.08
76750;DHT22;66447;35.844;14.468;2023-07-20T22:58:56;36.27;-6.00
76750;DHT22;66447;35.844;14.468;2023-07-20T23:13:56;36.29;27.87
76750;DHT22;66447;35.844;14.468;2023-07-20T23:28:57;35.14;46.64
76750;DHT22;66447;35.844;14.468;2023-07-20T23:43:58;34.86;118.99
76750;DHT22;66447;35.844;14.468;2023-07-20T23:58:59;34.51;118.99
